createdAt,value
2022-09-26T00:00:09.096Z,99.90
2022-09-26T00:02:35.745Z,99.90
2022-09-26T00:05:02.405Z,99.90
2022-09-26T00:07:28.961Z,99.90
2022-09-26T00:09:55.601Z,99.90
2022-09-26T00:12:22.329Z,99.90
2022-09-26T00:14:48.860Z,99.90
2022-09-26T00:17:15.400Z,99.90
2022-09-26T00:19:42.141Z,99.90
2022-09-26T00:22:08.880Z,99.90
2022-09-26T00:24:35.531Z,99.90
2022-09-26T00:27:02.234Z,99.90
2022-09-26T00:29:28.946Z,99.90
2022-09-26T00:31:55.712Z,99.90
2022-09-26T00:34:22.298Z,99.90
2022-09-26T00:36:49.017Z,99.90
2022-09-26T00:39:16.415Z,99.90
2022-09-26T00:41:43.701Z,99.90
2022-09-26T00:44:29.300Z,99.90
2022-09-26T00:46:55.918Z,99.90
2022-09-26T00:49:25.601Z,99.90
2022-09-26T00:51:57.205Z,99.90
2022-09-26T00:54:24.454Z,99.90
2022-09-26T00:56:53.584Z,99.90
2022-09-26T00:59:25.231Z,99.90
2022-09-26T01:01:52.759Z,99.90
2022-09-26T01:04:20.090Z,99.90
2022-09-26T01:06:46.789Z,99.90
2022-09-26T01:09:14.348Z,99.90
2022-09-26T01:11:42.105Z,99.90
2022-09-26T01:14:10.062Z,99.90
2022-09-26T01:16:40.416Z,99.90
2022-09-26T01:19:14.229Z,99.90
2022-09-26T01:21:46.956Z,99.90
2022-09-26T01:24:16.631Z,99.90
2022-09-26T01:26:56.126Z,99.90
2022-09-26T01:29:39.223Z,99.90
2022-09-26T01:32:30.891Z,99.90
2022-09-26T01:34:57.413Z,99.30
2022-09-26T01:37:30.227Z,99.90
2022-09-26T01:40:08.118Z,99.40
2022-09-26T01:42:34.618Z,99.10
2022-09-26T01:45:06.810Z,99.30
2022-09-26T01:47:43.996Z,99.90
2022-09-26T01:50:23.830Z,99.60
2022-09-26T01:52:58.889Z,97.80
2022-09-26T01:55:28.867Z,98.90
2022-09-26T01:57:58.422Z,99.70
2022-09-26T02:00:25.237Z,99.20
2022-09-26T02:02:53.056Z,97.40
2022-09-26T02:05:32.867Z,96.90
2022-09-26T02:08:03.391Z,96.60
2022-09-26T02:10:35.847Z,98.50
2022-09-26T02:13:09.402Z,97.50
2022-09-26T02:15:36.858Z,97.50
2022-09-26T02:18:10.313Z,97.00
2022-09-26T02:20:37.963Z,99.20
2022-09-26T02:23:05.008Z,99.80
2022-09-26T02:25:31.795Z,97.10
2022-09-26T02:27:58.574Z,96.00
2022-09-26T02:30:25.153Z,98.60
2022-09-26T02:32:51.700Z,96.90
2022-09-26T02:35:37.096Z,95.60
2022-09-26T02:38:04.503Z,96.60
2022-09-26T02:40:42.440Z,99.40
2022-09-26T02:43:23.253Z,97.30
2022-09-26T02:46:03.507Z,99.50
2022-09-26T02:48:43.789Z,99.70
2022-09-26T02:51:16.500Z,96.10
2022-09-26T02:53:53.151Z,97.30
2022-09-26T02:56:23.530Z,97.30
2022-09-26T02:58:53.067Z,98.20
2022-09-26T03:01:37.313Z,98.10
2022-09-26T03:04:14.750Z,98.30
2022-09-26T03:06:44.219Z,99.10
2022-09-26T03:09:12.235Z,99.20
2022-09-26T03:11:39.410Z,99.90
2022-09-26T03:14:07.711Z,99.90
2022-09-26T03:16:35.779Z,99.90
2022-09-26T03:19:02.408Z,99.90
2022-09-26T03:21:29.062Z,99.90
2022-09-26T03:23:58.214Z,99.90
2022-09-26T03:26:26.598Z,99.90
2022-09-26T03:28:54.091Z,99.90
2022-09-26T03:31:25.172Z,99.90
2022-09-26T03:33:52.120Z,99.90
2022-09-26T03:36:18.825Z,99.90
2022-09-26T03:38:45.371Z,99.90
2022-09-26T03:41:11.947Z,99.90
2022-09-26T03:43:39.124Z,99.90
2022-09-26T03:46:06.747Z,99.90
2022-09-26T03:48:33.880Z,99.90
2022-09-26T03:51:07.662Z,99.90
2022-09-26T03:53:38.974Z,99.90
2022-09-26T03:56:10.202Z,99.90
2022-09-26T03:58:37.157Z,99.90
2022-09-26T04:01:11.042Z,99.90
2022-09-26T04:03:38.679Z,99.90
2022-09-26T04:06:06.332Z,99.90
2022-09-26T04:08:32.846Z,99.90
2022-09-26T04:11:03.819Z,99.90
2022-09-26T04:16:17.813Z,99.90
2022-09-26T04:18:44.421Z,99.90
2022-09-26T04:21:14.099Z,99.90
2022-09-26T04:23:41.778Z,99.90
2022-09-26T04:26:13.109Z,99.90
2022-09-26T04:28:40.503Z,99.90
2022-09-26T04:31:07.781Z,99.90
2022-09-26T04:33:34.387Z,99.90
2022-09-26T04:36:05.152Z,99.90
2022-09-26T04:38:34.863Z,99.90
2022-09-26T04:41:04.722Z,99.90
2022-09-26T04:43:31.976Z,99.90
2022-09-26T04:45:58.805Z,99.90
2022-09-26T04:48:25.828Z,99.90
2022-09-26T04:50:52.440Z,99.90
2022-09-26T04:53:19.308Z,99.90
2022-09-26T04:55:46.622Z,99.90
2022-09-26T04:58:13.964Z,99.90
2022-09-26T05:00:49.937Z,99.90
2022-09-26T05:03:17.060Z,99.90
2022-09-26T05:05:45.249Z,99.90
2022-09-26T05:08:11.992Z,99.90
2022-09-26T05:10:38.640Z,99.90
2022-09-26T05:13:07.568Z,99.90
2022-09-26T05:15:39.900Z,99.90
2022-09-26T05:18:07.815Z,99.90
2022-09-26T05:20:35.243Z,99.90
2022-09-26T05:23:02.446Z,99.90
2022-09-26T05:25:49.426Z,99.90
2022-09-26T05:28:16.283Z,99.90
2022-09-26T05:30:43.470Z,99.90
2022-09-26T05:33:12.944Z,99.90
2022-09-26T05:35:40.351Z,99.90
2022-09-26T05:38:07.010Z,99.90
2022-09-26T05:40:52.483Z,99.90
2022-09-26T05:43:19.107Z,99.90
2022-09-26T05:45:49.311Z,99.90
2022-09-26T05:48:17.285Z,99.90
2022-09-26T05:50:44.237Z,99.90
2022-09-26T05:53:10.804Z,99.90
2022-09-26T05:55:37.853Z,99.90
2022-09-26T05:58:06.038Z,99.90
2022-09-26T06:00:33.911Z,99.90
2022-09-26T06:03:06.596Z,99.90
2022-09-26T06:05:34.637Z,99.90
2022-09-26T06:08:04.260Z,99.90
2022-09-26T06:10:31.127Z,99.90
2022-09-26T06:13:00.044Z,99.90
2022-09-26T06:15:26.584Z,99.90
2022-09-26T06:18:06.902Z,99.90
2022-09-26T06:20:33.786Z,99.90
2022-09-26T06:23:01.607Z,99.90
2022-09-26T06:25:29.157Z,99.90
2022-09-26T06:27:59.929Z,99.90
2022-09-26T06:30:27.085Z,99.90
2022-09-26T06:32:53.963Z,99.60
2022-09-26T06:35:21.384Z,99.90
2022-09-26T06:37:48.111Z,99.90
2022-09-26T06:40:14.868Z,97.30
2022-09-26T06:42:41.758Z,98.30
2022-09-26T06:45:09.459Z,95.90
2022-09-26T06:47:36.014Z,99.80
2022-09-26T06:50:03.299Z,99.00
2022-09-26T06:52:34.144Z,97.20
2022-09-26T06:55:02.300Z,96.60
2022-09-26T06:57:30.081Z,99.20
2022-09-26T06:59:57.170Z,96.30
2022-09-26T07:02:27.102Z,95.60
2022-09-26T07:04:53.903Z,95.20
2022-09-26T07:07:20.631Z,94.70
2022-09-26T07:09:47.198Z,95.60
2022-09-26T07:12:15.965Z,95.80
2022-09-26T07:14:43.345Z,96.20
2022-09-26T07:17:15.511Z,95.10
2022-09-26T07:19:42.491Z,95.30
2022-09-26T07:22:09.488Z,94.40
2022-09-26T07:24:36.285Z,94.40
2022-09-26T07:27:03.230Z,96.70
2022-09-26T07:29:29.739Z,96.70
2022-09-26T07:31:56.540Z,96.40
2022-09-26T07:34:24.921Z,96.60
2022-09-26T07:36:51.866Z,96.40
2022-09-26T07:39:18.458Z,94.90
2022-09-26T07:41:46.089Z,96.20
2022-09-26T07:47:18.387Z,94.80
2022-09-26T07:50:03.604Z,94.90
2022-09-26T07:52:30.729Z,95.40
2022-09-26T07:54:57.266Z,94.80
2022-09-26T07:57:24.026Z,95.10
2022-09-26T07:59:50.931Z,94.50
2022-09-26T08:02:24.909Z,95.00
2022-09-26T08:04:58.814Z,93.70
2022-09-26T08:07:27.382Z,93.90
2022-09-26T08:09:54.175Z,93.90
2022-09-26T08:12:20.788Z,94.00
2022-09-26T08:14:49.077Z,94.10
2022-09-26T08:17:16.410Z,93.60
2022-09-26T08:19:43.288Z,93.40
2022-09-26T08:22:10.073Z,93.30
2022-09-26T08:24:36.589Z,92.20
2022-09-26T08:27:03.223Z,92.10
2022-09-26T08:29:32.236Z,91.60
2022-09-26T08:32:00.883Z,91.50
2022-09-26T08:34:27.552Z,91.00
2022-09-26T08:36:54.257Z,91.30
2022-09-26T08:39:21.461Z,90.70
2022-09-26T08:41:48.204Z,88.60
2022-09-26T08:44:31.768Z,86.90
2022-09-26T08:47:04.719Z,86.30
2022-09-26T08:49:41.744Z,89.00
2022-09-26T08:52:23.746Z,88.50
2022-09-26T08:54:51.257Z,86.20
2022-09-26T08:57:17.792Z,84.40
2022-09-26T08:59:45.991Z,78.10
2022-09-26T09:02:32.896Z,79.10
2022-09-26T09:05:08.764Z,74.10
2022-09-26T09:07:35.396Z,72.60
2022-09-26T09:10:03.917Z,72.30
2022-09-26T09:12:38.970Z,69.80
2022-09-26T09:15:25.615Z,63.50
2022-09-26T09:17:58.817Z,62.20
2022-09-26T09:20:25.535Z,58.40
2022-09-26T09:22:55.094Z,55.80
2022-09-26T09:25:42.250Z,54.10
2022-09-26T09:28:09.003Z,52.20
2022-09-26T09:30:39.568Z,52.20
2022-09-26T09:33:12.103Z,51.90
2022-09-26T09:35:41.488Z,51.10
2022-09-26T09:38:10.416Z,52.00
2022-09-26T09:40:39.961Z,52.70
2022-09-26T09:43:12.626Z,53.00
2022-09-26T09:45:50.615Z,55.80
2022-09-26T09:48:17.677Z,54.40
2022-09-26T09:50:58.111Z,54.10
2022-09-26T09:53:27.397Z,56.10
2022-09-26T09:56:12.884Z,59.00
2022-09-26T09:58:47.583Z,62.10
2022-09-26T10:01:17.746Z,66.20
2022-09-26T10:03:44.259Z,69.40
2022-09-26T10:06:45.776Z,70.50
2022-09-26T10:09:35.253Z,73.40
2022-09-26T10:11:52.727Z,74.90
2022-09-26T10:14:25.074Z,75.80
2022-09-26T10:17:09.901Z,79.10
2022-09-26T10:19:37.770Z,82.50
2022-09-26T10:22:09.610Z,85.90
2022-09-26T10:24:43.231Z,88.10
2022-09-26T10:27:32.274Z,89.40
2022-09-26T10:29:59.995Z,89.60
2022-09-26T10:32:27.097Z,88.40
2022-09-26T10:35:05.638Z,85.90
2022-09-26T10:37:32.659Z,85.70
2022-09-26T10:40:17.913Z,83.30
2022-09-26T10:42:47.436Z,81.20
2022-09-26T10:45:16.013Z,82.00
2022-09-26T10:47:46.136Z,77.80
2022-09-26T10:50:17.999Z,76.30
2022-09-26T10:52:47.561Z,76.10
2022-09-26T10:55:25.386Z,80.30
2022-09-26T10:57:53.767Z,80.70
2022-09-26T11:00:22.193Z,83.40
2022-09-26T11:02:53.720Z,81.00
2022-09-26T11:05:39.244Z,77.30
2022-09-26T11:08:06.747Z,75.70
2022-09-26T11:10:34.222Z,72.50
2022-09-26T11:13:16.715Z,70.90
2022-09-26T11:16:01.943Z,71.30
2022-09-26T11:18:33.186Z,71.30
2022-09-26T11:21:23.128Z,73.10
2022-09-26T11:23:58.155Z,67.60
2022-09-26T11:26:46.279Z,66.50
2022-09-26T11:29:18.159Z,67.90
2022-09-26T11:31:45.811Z,64.90
2022-09-26T11:34:17.793Z,63.60
2022-09-26T11:37:03.592Z,63.20
2022-09-26T11:39:45.446Z,61.50
2022-09-26T11:42:15.891Z,63.40
2022-09-26T11:44:42.366Z,58.10
2022-09-26T11:47:13.042Z,58.20
2022-09-26T11:49:46.042Z,59.30
2022-09-26T11:52:24.140Z,62.30
2022-09-26T11:55:01.762Z,58.60
2022-09-26T11:57:32.923Z,62.80
2022-09-26T12:00:02.436Z,63.60
2022-09-26T12:02:39.868Z,61.30
2022-09-26T12:05:08.033Z,63.80
2022-09-26T12:07:53.559Z,63.50
2022-09-26T12:10:26.221Z,64.10
2022-09-26T12:13:12.058Z,66.50
2022-09-26T12:15:53.490Z,70.80
2022-09-26T12:18:23.719Z,68.50
2022-09-26T12:21:00.367Z,74.00
2022-09-26T12:23:26.883Z,76.10
2022-09-26T12:25:57.241Z,79.70
2022-09-26T12:28:34.078Z,84.20
2022-09-26T12:31:21.736Z,86.30
2022-09-26T12:34:07.876Z,91.00
2022-09-26T12:36:39.998Z,90.00
2022-09-26T12:39:24.793Z,90.90
2022-09-26T12:41:54.826Z,90.70
2022-09-26T12:44:37.415Z,91.30
2022-09-26T12:47:15.136Z,91.60
2022-09-26T12:49:58.140Z,91.50
2022-09-26T12:52:27.779Z,93.30
2022-09-26T12:55:13.054Z,93.00
2022-09-26T12:57:43.043Z,95.10
2022-09-26T13:00:16.664Z,93.60
2022-09-26T13:03:02.103Z,95.10
2022-09-26T13:05:47.770Z,94.70
2022-09-26T13:08:21.064Z,94.70
2022-09-26T13:10:59.821Z,93.50
2022-09-26T13:13:35.839Z,93.00
2022-09-26T13:16:21.501Z,93.80
2022-09-26T13:18:49.338Z,93.20
2022-09-26T13:21:19.255Z,90.90
2022-09-26T13:23:57.832Z,90.20
2022-09-26T13:26:30.896Z,90.60
2022-09-26T13:29:16.702Z,90.30
2022-09-26T13:31:46.248Z,91.70
2022-09-26T13:34:15.803Z,92.30
2022-09-26T13:36:43.737Z,91.60
2022-09-26T13:39:16.329Z,91.50
2022-09-26T13:41:48.535Z,91.70
2022-09-26T13:44:23.104Z,91.90
2022-09-26T13:47:09.478Z,91.10
2022-09-26T13:49:36.643Z,90.80
2022-09-26T13:52:03.364Z,90.70
2022-09-26T13:54:50.132Z,90.80
2022-09-26T13:57:30.077Z,91.80
2022-09-26T13:59:56.662Z,91.90
2022-09-26T14:02:28.312Z,92.00
2022-09-26T14:05:00.935Z,92.90
2022-09-26T14:07:58.628Z,91.00
2022-09-26T14:10:25.304Z,91.70
2022-09-26T14:13:06.492Z,92.20
2022-09-26T14:15:48.319Z,91.90
2022-09-26T14:18:25.506Z,92.10
2022-09-26T14:21:15.581Z,92.70
2022-09-26T14:23:49.278Z,92.40
2022-09-26T14:26:21.180Z,92.90
2022-09-26T14:28:52.839Z,92.20
2022-09-26T14:31:19.581Z,93.70
2022-09-26T14:33:46.792Z,92.80
2022-09-26T14:36:17.555Z,93.10
2022-09-26T14:38:48.395Z,93.60
2022-09-26T14:41:19.146Z,94.00
2022-09-26T14:43:46.930Z,94.20
2022-09-26T14:46:23.030Z,94.10
2022-09-26T14:48:56.944Z,97.60
2022-09-26T14:51:25.843Z,94.30
2022-09-26T14:53:52.363Z,94.90
2022-09-26T14:56:25.516Z,94.20
2022-09-26T14:58:52.153Z,95.30
2022-09-26T15:01:21.912Z,93.90
2022-09-26T15:04:01.355Z,93.60
2022-09-26T15:06:28.597Z,93.20
2022-09-26T15:08:55.926Z,94.50
2022-09-26T15:11:32.883Z,94.10
2022-09-26T15:14:02.960Z,94.00
2022-09-26T15:16:37.473Z,94.60
2022-09-26T15:19:20.839Z,94.90
2022-09-26T15:21:50.364Z,96.00
2022-09-26T15:24:27.772Z,94.80
2022-09-26T15:26:55.519Z,95.30
2022-09-26T15:29:22.631Z,94.50
2022-09-26T15:31:49.240Z,94.70
2022-09-26T15:34:17.301Z,95.20
2022-09-26T15:36:44.685Z,95.20
2022-09-26T15:39:29.735Z,95.70
2022-09-26T15:42:15.010Z,96.00
2022-09-26T15:44:46.258Z,95.40
2022-09-26T15:47:25.907Z,95.90
2022-09-26T15:50:10.638Z,95.90
2022-09-26T15:52:39.481Z,95.60
2022-09-26T15:55:06.590Z,96.00
2022-09-26T15:57:33.611Z,96.30
2022-09-26T16:00:00.711Z,96.50
2022-09-26T16:02:32.415Z,96.00
2022-09-26T16:04:59.371Z,95.20
2022-09-26T16:07:27.828Z,95.50
2022-09-26T16:09:55.964Z,96.70
2022-09-26T16:12:23.610Z,95.90
2022-09-26T16:14:58.533Z,95.30
2022-09-26T16:17:36.042Z,95.80
2022-09-26T16:20:22.860Z,95.50
2022-09-26T16:23:01.833Z,95.60
2022-09-26T16:25:34.681Z,96.00
2022-09-26T16:28:03.453Z,96.50
2022-09-26T16:30:30.163Z,96.20
2022-09-26T16:33:03.098Z,96.50
2022-09-26T16:35:30.556Z,96.60
2022-09-26T16:38:05.541Z,96.20
2022-09-26T16:40:35.473Z,96.40
2022-09-26T16:43:03.267Z,96.30
2022-09-26T16:45:30.204Z,96.60
2022-09-26T16:47:56.758Z,97.20
2022-09-26T16:50:33.684Z,96.40
2022-09-26T16:53:02.802Z,96.70
2022-09-26T16:55:32.388Z,97.10
2022-09-26T16:58:03.214Z,97.70
2022-09-26T17:00:52.394Z,98.30
2022-09-26T17:03:24.098Z,98.40
2022-09-26T17:05:51.680Z,98.20
2022-09-26T17:08:18.508Z,98.60
2022-09-26T17:10:46.057Z,99.20
2022-09-26T17:13:15.179Z,99.10
2022-09-26T17:15:42.743Z,98.90
2022-09-26T17:18:11.738Z,99.30
2022-09-26T17:20:41.591Z,99.90
2022-09-26T17:23:34.928Z,99.90
2022-09-26T17:25:57.813Z,99.90
2022-09-26T17:28:42.834Z,99.90
2022-09-26T17:31:14.635Z,99.90
2022-09-26T17:33:42.566Z,99.90
2022-09-26T17:36:17.692Z,99.90
2022-09-26T17:38:44.251Z,99.90
2022-09-26T17:41:12.578Z,99.90
2022-09-26T17:43:39.458Z,99.90
2022-09-26T17:46:06.391Z,99.90
2022-09-26T17:48:33.136Z,99.90
2022-09-26T17:51:02.048Z,99.90
2022-09-26T17:53:39.091Z,99.90
2022-09-26T17:56:06.672Z,99.90
2022-09-26T17:58:34.292Z,99.90
2022-09-26T18:01:02.843Z,99.90
2022-09-26T18:03:32.163Z,99.90
2022-09-26T18:05:59.413Z,99.90
2022-09-26T18:08:36.479Z,99.90
2022-09-26T18:11:04.402Z,99.90
2022-09-26T18:13:33.879Z,99.90
2022-09-26T18:16:01.132Z,99.90
2022-09-26T18:18:28.715Z,99.90
2022-09-26T18:20:57.265Z,99.90
2022-09-26T18:23:29.043Z,99.90
2022-09-26T18:25:56.909Z,99.90
2022-09-26T18:28:23.578Z,99.90
2022-09-26T18:30:56.900Z,99.90
2022-09-26T18:33:24.835Z,99.60
2022-09-26T18:35:52.179Z,99.80
2022-09-26T18:38:18.704Z,99.70
2022-09-26T18:40:54.860Z,99.60
2022-09-26T18:43:23.230Z,99.90
2022-09-26T18:45:50.429Z,99.90
2022-09-26T18:48:24.512Z,99.50
2022-09-26T18:50:51.606Z,99.90
2022-09-26T18:53:19.944Z,99.90
2022-09-26T18:56:05.013Z,99.90
2022-09-26T18:58:32.295Z,99.90
2022-09-26T19:01:01.311Z,98.70
2022-09-26T19:03:29.511Z,99.00
2022-09-26T19:06:03.900Z,99.90
2022-09-26T19:08:40.747Z,99.90
2022-09-26T19:11:12.904Z,99.90
2022-09-26T19:13:40.139Z,99.90
2022-09-26T19:16:07.093Z,99.90
2022-09-26T19:18:33.848Z,99.90
2022-09-26T19:21:01.122Z,99.90
2022-09-26T19:23:30.140Z,99.90
2022-09-26T19:25:56.861Z,99.90
2022-09-26T19:28:26.169Z,99.90
2022-09-26T19:30:53.141Z,99.90
2022-09-26T19:33:19.729Z,99.90
2022-09-26T19:35:47.281Z,99.50
2022-09-26T19:38:21.804Z,99.60
2022-09-26T19:40:49.280Z,98.90
2022-09-26T19:43:16.585Z,99.00
2022-09-26T19:45:44.207Z,99.10
2022-09-26T19:48:15.784Z,99.90
2022-09-26T19:50:43.547Z,99.90
2022-09-26T19:53:13.535Z,99.90
2022-09-26T19:55:40.119Z,99.90
2022-09-26T19:58:11.722Z,99.90
2022-09-26T20:00:41.572Z,99.90
2022-09-26T20:03:17.763Z,99.90
2022-09-26T20:05:45.542Z,99.90
2022-09-26T20:08:19.513Z,99.90
2022-09-26T20:10:46.493Z,99.90
2022-09-26T20:13:13.076Z,99.90
2022-09-26T20:15:39.798Z,99.90
2022-09-26T20:18:07.724Z,99.90
2022-09-26T20:20:35.863Z,99.90
2022-09-26T20:23:02.654Z,99.90
2022-09-26T20:25:31.418Z,99.90
2022-09-26T20:27:58.603Z,99.90
2022-09-26T20:30:44.547Z,99.90
2022-09-26T20:33:11.420Z,99.90
2022-09-26T20:35:41.011Z,99.90
2022-09-26T20:38:10.592Z,99.90
2022-09-26T20:40:37.946Z,99.90
2022-09-26T20:43:07.416Z,99.90
2022-09-26T20:45:38.575Z,99.90
2022-09-26T20:48:07.951Z,99.90
2022-09-26T20:50:37.316Z,99.90
2022-09-26T20:53:05.858Z,99.90
2022-09-26T20:55:32.403Z,99.90
2022-09-26T20:57:59.676Z,99.90
2022-09-26T21:00:26.211Z,99.90
2022-09-26T21:02:54.221Z,99.90
2022-09-26T21:05:22.771Z,99.90
2022-09-26T21:07:50.086Z,99.90
2022-09-26T21:10:24.412Z,99.90
2022-09-26T21:12:51.433Z,99.90
2022-09-26T21:15:18.297Z,99.90
2022-09-26T21:17:45.534Z,99.90
2022-09-26T21:20:22.340Z,99.90
2022-09-26T21:22:49.198Z,99.90
2022-09-26T21:25:17.373Z,99.90
2022-09-26T21:27:55.672Z,99.90
2022-09-26T21:30:22.196Z,99.90
2022-09-26T21:32:52.894Z,99.90
2022-09-26T21:35:20.499Z,99.90
2022-09-26T21:37:48.865Z,99.90
2022-09-26T21:40:15.648Z,99.90
2022-09-26T21:42:45.363Z,99.90
2022-09-26T21:45:13.807Z,99.90
2022-09-26T21:47:40.498Z,99.90
2022-09-26T21:50:08.338Z,99.90
2022-09-26T21:52:37.191Z,99.90
2022-09-26T21:55:06.149Z,99.90
2022-09-26T21:57:34.554Z,99.90
2022-09-26T22:00:02.255Z,99.90
2022-09-26T22:02:28.883Z,99.90
2022-09-26T22:04:55.526Z,99.90
2022-09-26T22:07:22.164Z,99.90
2022-09-26T22:09:48.702Z,99.90
2022-09-26T22:12:15.319Z,99.90
2022-09-26T22:14:42.432Z,99.90
2022-09-26T22:17:12.178Z,99.90
2022-09-26T22:19:39.061Z,99.90
2022-09-26T22:22:05.867Z,99.90
2022-09-26T22:24:33.198Z,99.90
2022-09-26T22:26:59.852Z,99.90
2022-09-26T22:29:27.200Z,99.90
2022-09-26T22:31:53.746Z,99.90
2022-09-26T22:34:20.893Z,99.90
2022-09-26T22:36:47.500Z,99.90
2022-09-26T22:39:14.063Z,99.90
2022-09-26T22:41:40.574Z,99.90
2022-09-26T22:44:07.082Z,99.90
2022-09-26T22:46:34.189Z,99.90
2022-09-26T22:49:01.034Z,99.90
2022-09-26T22:51:27.654Z,99.90
2022-09-26T22:53:54.341Z,99.90
2022-09-26T22:56:21.115Z,99.90
2022-09-26T22:58:49.304Z,99.90
2022-09-26T23:01:22.220Z,99.90
2022-09-26T23:03:49.184Z,99.90
2022-09-26T23:06:15.758Z,99.90
2022-09-26T23:08:42.330Z,99.90
2022-09-26T23:11:11.133Z,99.90
2022-09-26T23:13:39.084Z,99.90
2022-09-26T23:16:06.465Z,99.90
2022-09-26T23:18:34.593Z,99.90
2022-09-26T23:21:11.731Z,99.90
2022-09-26T23:23:38.634Z,99.90
2022-09-26T23:26:06.710Z,99.90
2022-09-26T23:28:33.774Z,99.90
2022-09-26T23:31:04.338Z,99.90
2022-09-26T23:33:31.122Z,99.90
2022-09-26T23:35:58.052Z,99.90
2022-09-26T23:38:29.146Z,99.90
2022-09-26T23:40:55.958Z,99.90
2022-09-26T23:43:22.772Z,99.90
2022-09-26T23:45:49.501Z,99.90
2022-09-26T23:48:16.430Z,99.90
2022-09-26T23:50:43.985Z,99.90
2022-09-26T23:53:11.047Z,99.90
2022-09-26T23:55:37.767Z,99.90
2022-09-26T23:58:04.399Z,99.90
